モントリオール/トルドー の空港の天気 - METARとTAF

モントリオール・ピエール・エリオット・トルドー国際空港 ( CYUL / YUL ) - カナダ ケベック州モントリオール
飛行場実況気象(Metar)
観測時間01/18 16:24 EST (01/18 21:24 UTC)
風向・風速西南西 6m/s 瞬間風速10m/s
視程10km以上
天気現象
全天を覆う雲 雲底高度 1370m
気温-4℃
湿度80%
気圧1013.1hPa
METARCYUL 182124Z 25012G19KT 12SM OVC045 M04/M07 A2991 RMK SC8 SLP131
過去の天気等 Google飛行場航空写真 Wunderground天気予報

過去48時間のMETAR

飛行場予報(TAF)
発表時間: 1/18 15:38 EST (1/18 20:38 UTC)
予報対象時間: 18日16時 EST ~ 19日13時 EST
風向・風速西南西 5m/s 瞬間風速 10m/s
視程10km以上
少しの雲 雲底高度 610m
全天を覆う雲 雲底高度 1,220m
18日16時 EST ~ 18日18時 EST に一時的に
視程10km以上
天気現象弱い雪
全天の8割程度の雲 雲底高度 610m
18日19時 EST ~ 18日21時 EST に徐々に
風向・風速西南西 5m/s
19日1時 EST から
風向・風速西南西 5m/s
視程10km以上
天気現象弱い雪
全天を覆う雲 雲底高度 910m
19日11時 EST ~ 19日13時 EST に徐々に
風向・風速西南西 5m/s 瞬間風速 10m/s
TAF CYUL 182038Z 1821/1918 24010G20KT P6SM FEW020 OVC040
TEMPO 1821/1823 P6SM -SN BKN020
BECMG 1900/1902 24010KT
FM190600 24010KT P6SM -SN OVC030
BECMG 1916/1918 24010G20KT RMK NXT FCST BY 190000Z